首页
METAR-TAF:

METAR-TAF

机场 :

奧利安, 紐約州, 美国

纬度: 42-14-28N, 经度: 078-22-17W, 海拔: 651米

当前天气观测

该预报发布于23分钟前的08:15 UTC
静风
温度 -8°C
湿度 100%
气压 1031 hPa
能見度: 4.8公里
多云层高于1500英尺
阴天层高于2100英尺
小雪

METAR: KOLE 120815Z AUTO 00000KT 3SM -SN BKN015 OVC021 M08/M08 A3046 RMK AO2

时间: 03:38 (08:38 UTC)


TAF: 丢失

超过4000个机场的气象观测和天气预报(METAR&TAF报告)。

可查询的气象台以黄色和红色小点在地图上表示。

将鼠标移到小点上方,可查看气象台名称。

然后点击查看天气观测和预报。

如需切换地图:点击带黑十字的绿色按钮放大地图;点击带横线的绿色按钮缩小地图;或者点击绿色箭头查看邻近地区的地图。


METAR-TAF: